Terminal Aerodrome Forecast
Issued by NWS

Home | Current Version | Previous Version | Text Only | Print | Product List | Glossary On
Versions: 1 2 3 4 5 6 7 8 9 10 11 12 13 14
000
FTUS45 KABQ 262300
TAFROW
TAF
KROW 262337Z 2700/2724 27018G28KT P6SM SCT090
     FM270200 30015KT P6SM OVC100
     FM270800 36015KT P6SM VCSH BKN060
     FM271200 36020G30KT P6SM VCSH OVC025
     FM271800 35014KT P6SM OVC035=

USA.gov is the U.S. government's official web portal to all federal, state and local government web resources and services.